Terminal Aerodrome Forecast
Issued by NWS

Home | Current Version | Previous Version | Text Only | Print | Product List | Glossary On
Versions: 1 2 3 4 5 6 7 8 9 10 11 12 13 14
000
FTAK31 PAJN 182300
TAFAPG
TAF
PAPG 182320Z 1900/1924 08010KT P6SM VCSH SCT025 OVC050
     FM190700 VRB06KT P6SM -SHRA VCFG BKN025 OVC050
     FM191300 13008KT 6SM -RA BKN020 OVC040
     FM191900 13008KT 5SM -RA BKN020 OVC040
      AMD LTD TO CLD VIS AND WIND 1906/1915=

USA.gov is the U.S. government's official web portal to all federal, state and local government web resources and services.